Airfield :
LOGIN :

Register | Disclaimer

   EN    FR    IT 

 










Legend :    VFR   Marginal VFR   IFR   Intensive IFR   Very Intensive IFR
Visi :
Ceiling :
>= 8 km
>= 3000ft
5 to 8 km
1000 to 3000 ft
1500m to 5 km
500 to 1000 ft
800 to 1500m
200 to 500 ft
< 800m
< 200 ft
Symbols :   Thunderstorms  Fog  Heavy snow  Heavy precipitations  Wind > 20 kt
SIGMETs :     Misc.  Thunderstorms  Icing  Turbulence  Mountain Waves  Volcanic Ashes







- Airport Elevation : 29 ft
- IATA code : SVG


ENZV - Sola

CURRENT METAR :
  • 221750Z 20005KT 9000 -DZ SCT006 BKN015 17/15 Q1011 TEMPO 4000 DZ BR BKN005

EXPIRED METARs :
  • 221720Z 19003KT 150V220 9999 BKN016 18/14 Q1011 BECMG BKN012
  • 221650Z 19004KT 160V220 9999 BKN017 18/13 Q1011 BECMG BKN012
  • 221620Z 18003KT 130V220 9999 BKN018 19/12 Q1011 BECMG BKN012
  • 221550Z VRB03KT 9999 BKN017 18/12 Q1011 BECMG BKN012
  • 221520Z VRB02KT 9999 BKN017 18/12 Q1011 BECMG BKN012
  • 221450Z 21005KT 180V250 9999 SCT017 BKN040 18/11 Q1011 NOSIG

TAF ENZV
Valid from the 22 at 18:00 until the 23 at 18:00 UTC


2218/2318 VRB06KT 9999 BKN012
TEMPO 2218/2305 3000 DZRA BR BKN004
BECMG 2306/2309 FEW012 BKN025
BECMG 2310/2312 18012KT
No reported NOTAMs for that airfield.
1 SIGMET reported for the Norway FIR (ENOR) :
 
Embedded thunderstorms
ENBD SIGMET D02 VALID 221730/222130 ENVN
ENOR NORWAY FIR EMBD TS FCST E OF E02500 TOP ABV FL320 STNR NC=



MET'MAP, your aeronautical weather chart ! - Copyright ORBIFLY December 2007 - Disclaimer

ORBIFLY MET'MAP TEAM :

Programming & Development : Alexandra Zaïnal
Concept & Development : Baudouin d'Aumeries
Co-Development & Prog : Marc-Olivier Méhu
Technical & hardware support : Manuel Goepfert

Contact : metmap@orbifly.com




SOURCES & CREDITS :

   NOAA